KSZL/SZL METAR and TAF weather

Enter ICAO airport designator
Station Type Date Time Source
KSZL METAR 2022/06/29 23:56 UTC NOAA

KSZL 292356Z 19008KT 10SM CLR 31/17 A3007 RMK AO2A SLP178 T03090165 10328 20305 57018 $


Station Type Date Time Source
KSZL Decoded METAR 2022/06/29 23:56 UTC NOAA

Whiteman Air Force Base, MO, United States (KSZL) 38-44N 093-33W
Jun 29, 2022 - 07:56 PM EDT / 2022.06.29 2356 UTC
Wind: from the S (190 degrees) at 9 MPH (8 KT):0
Visibility: 10 mile(s):0
Sky conditions: clear
Temperature: 87.6 F (30.9 C)
Dew Point: 61.7 F (16.5 C)
Relative Humidity: 41%
Pressure (altimeter): 30.07 in. Hg (1018 hPa)
Pressure tendency: 0.05 inches (1.8 hPa) lower than three hours ago
ob: KSZL 292356Z 19008KT 10SM CLR 31/17 A3007 RMK AO2A SLP178 T03090165 10328 20305 57018
cycle: 0

Station Type Date Time Source
KSZL TAF 2022/06/29 19:18 UTC NOAA

TAF TAF KSZL 291900Z 2919/0101 19009KT 9999 SKC QNH2990INS WND 20010G15KT AFT 3017 TX33/2920Z TN17/3011Z

Example: see airport list